createdAt,value
2018-10-17T00:01:23.729Z,99.90
2018-10-17T00:03:50.912Z,99.90
2018-10-17T00:06:18.150Z,99.90
2018-10-17T00:08:45.299Z,99.90
2018-10-17T00:11:12.624Z,99.90
2018-10-17T00:13:39.687Z,99.90
2018-10-17T00:16:06.898Z,99.90
2018-10-17T00:18:40.750Z,99.90
2018-10-17T00:21:07.935Z,99.90
2018-10-17T00:23:35.124Z,99.90
2018-10-17T00:26:02.742Z,99.90
2018-10-17T00:28:29.926Z,99.90
2018-10-17T00:30:57.130Z,99.90
2018-10-17T00:33:24.248Z,99.90
2018-10-17T00:35:51.412Z,99.90
2018-10-17T00:38:18.712Z,99.90
2018-10-17T00:40:45.891Z,99.90
2018-10-17T00:43:13.078Z,99.90
2018-10-17T00:45:40.228Z,99.90
2018-10-17T00:48:07.412Z,99.90
2018-10-17T00:50:34.596Z,99.90
2018-10-17T00:53:01.766Z,99.90
2018-10-17T00:55:28.889Z,99.90
2018-10-17T00:57:56.100Z,99.90
2018-10-17T01:00:23.291Z,99.90
2018-10-17T01:02:50.391Z,99.90
2018-10-17T01:05:17.576Z,99.90
2018-10-17T01:07:44.782Z,99.90
2018-10-17T01:10:11.898Z,99.90
2018-10-17T01:12:39.392Z,99.90
2018-10-17T01:22:04.240Z,99.90
2018-10-17T01:24:31.405Z,99.90
2018-10-17T01:26:58.634Z,99.90
2018-10-17T01:29:26.897Z,99.90
2018-10-17T01:31:54.018Z,99.90
2018-10-17T01:34:21.444Z,99.90
2018-10-17T01:36:48.580Z,99.90
2018-10-17T01:39:15.788Z,99.90
2018-10-17T01:41:42.927Z,99.90
2018-10-17T01:44:10.095Z,99.90
2018-10-17T01:46:37.269Z,99.90
2018-10-17T01:49:04.645Z,99.90
2018-10-17T01:51:31.700Z,99.90
2018-10-17T01:53:58.882Z,99.90
2018-10-17T01:56:26.155Z,99.90
2018-10-17T01:58:53.405Z,99.90
2018-10-17T02:01:20.833Z,99.90
2018-10-17T02:03:48.009Z,99.90
2018-10-17T02:06:15.256Z,99.90
2018-10-17T02:08:42.429Z,99.90
2018-10-17T02:11:09.624Z,99.90
2018-10-17T02:13:36.735Z,99.90
2018-10-17T02:16:04.030Z,99.90
2018-10-17T02:18:31.148Z,99.90
2018-10-17T02:20:58.556Z,99.90
2018-10-17T02:23:29.116Z,99.90
2018-10-17T02:25:56.283Z,99.90
2018-10-17T02:28:23.382Z,99.90
2018-10-17T02:30:50.572Z,99.90
2018-10-17T02:33:17.759Z,99.90
2018-10-17T02:35:46.196Z,99.90
2018-10-17T02:38:13.495Z,99.90
2018-10-17T02:40:40.829Z,99.90
2018-10-17T02:43:10.154Z,99.90
2018-10-17T02:45:37.243Z,99.90
2018-10-17T02:48:04.408Z,99.90
2018-10-17T02:50:31.595Z,99.90
2018-10-17T02:52:58.796Z,99.90
2018-10-17T02:55:25.904Z,99.90
2018-10-17T02:57:53.043Z,99.90
2018-10-17T03:00:20.364Z,99.90
2018-10-17T03:02:47.481Z,99.90
2018-10-17T03:05:14.742Z,99.90
2018-10-17T03:07:41.832Z,99.90
2018-10-17T03:10:08.958Z,99.90
2018-10-17T03:12:36.169Z,99.90
2018-10-17T03:15:03.381Z,99.90
2018-10-17T03:17:30.534Z,99.90
2018-10-17T03:19:57.701Z,99.90
2018-10-17T03:22:25.506Z,99.90
2018-10-17T03:24:52.658Z,99.90
2018-10-17T03:27:19.838Z,99.90
2018-10-17T03:29:47.020Z,99.90
2018-10-17T03:32:14.179Z,99.90
2018-10-17T03:34:41.257Z,99.90
2018-10-17T03:37:09.544Z,99.90
2018-10-17T03:39:36.713Z,99.90
2018-10-17T03:42:04.024Z,99.90
2018-10-17T03:44:31.192Z,99.90
2018-10-17T03:46:58.451Z,99.90
2018-10-17T03:49:25.634Z,99.90
2018-10-17T03:51:52.823Z,99.90
2018-10-17T03:54:20.186Z,99.90
2018-10-17T03:56:47.465Z,99.90
2018-10-17T03:59:14.707Z,99.90
2018-10-17T04:01:41.827Z,99.90
2018-10-17T04:04:09.042Z,99.90
2018-10-17T04:06:36.209Z,99.90
2018-10-17T04:09:05.631Z,99.90
2018-10-17T04:11:32.829Z,99.90
2018-10-17T04:13:59.961Z,99.90
2018-10-17T04:16:27.070Z,99.90
2018-10-17T04:18:54.231Z,99.90
2018-10-17T04:21:21.413Z,99.90
2018-10-17T04:23:48.562Z,99.90
2018-10-17T04:26:15.760Z,99.90
2018-10-17T04:28:43.072Z,99.90
2018-10-17T04:31:10.333Z,99.90
2018-10-17T04:33:37.437Z,99.90
2018-10-17T04:36:04.713Z,99.90
2018-10-17T04:38:31.921Z,99.90
2018-10-17T04:41:00.276Z,99.90
2018-10-17T04:43:27.533Z,99.90
2018-10-17T04:45:54.790Z,99.90
2018-10-17T04:48:22.125Z,99.90
2018-10-17T04:50:50.084Z,99.90
2018-10-17T04:53:17.987Z,99.90
2018-10-17T04:55:46.232Z,99.90
2018-10-17T04:58:13.413Z,99.90
2018-10-17T05:00:40.617Z,99.90
2018-10-17T05:03:08.219Z,99.90
2018-10-17T05:05:35.445Z,99.90
2018-10-17T05:08:02.668Z,99.90
2018-10-17T05:10:30.212Z,99.90
2018-10-17T05:12:57.447Z,99.90
2018-10-17T05:15:25.294Z,99.90
2018-10-17T05:17:52.406Z,99.90
2018-10-17T05:20:19.622Z,99.90
2018-10-17T05:22:46.801Z,99.90
2018-10-17T05:25:14.011Z,99.90
2018-10-17T05:27:41.191Z,99.90
2018-10-17T05:30:08.355Z,99.90
2018-10-17T05:32:37.756Z,99.90
2018-10-17T05:35:06.623Z,99.90
2018-10-17T05:37:34.113Z,99.90
2018-10-17T05:40:01.188Z,99.90
2018-10-17T05:42:28.427Z,99.90
2018-10-17T05:44:55.632Z,99.90
2018-10-17T05:47:23.629Z,99.90
2018-10-17T05:49:50.936Z,99.90
2018-10-17T05:52:18.244Z,99.90
2018-10-17T05:54:45.488Z,99.90
2018-10-17T05:57:12.949Z,99.90
2018-10-17T05:59:40.147Z,99.90
2018-10-17T06:02:10.876Z,99.90
2018-10-17T06:04:39.154Z,99.90
2018-10-17T06:07:09.738Z,99.90
2018-10-17T06:09:36.896Z,99.90
2018-10-17T06:12:04.181Z,99.90
2018-10-17T06:14:31.447Z,99.90
2018-10-17T06:16:58.798Z,99.90
2018-10-17T06:19:25.972Z,99.90
2018-10-17T06:21:57.395Z,99.90
2018-10-17T06:24:24.591Z,99.90
2018-10-17T06:26:51.772Z,99.90
2018-10-17T06:29:18.901Z,99.90
2018-10-17T06:31:46.131Z,99.90
2018-10-17T06:34:13.401Z,99.90
2018-10-17T06:36:40.620Z,99.90
2018-10-17T06:39:10.284Z,99.90
2018-10-17T06:41:37.525Z,99.90
2018-10-17T06:44:06.007Z,99.90
2018-10-17T06:46:33.726Z,99.90
2018-10-17T06:49:01.154Z,99.90
2018-10-17T06:51:28.320Z,99.90
2018-10-17T06:53:55.618Z,99.90
2018-10-17T06:56:22.782Z,99.90
2018-10-17T06:58:50.147Z,99.90
2018-10-17T07:01:17.510Z,99.90
2018-10-17T07:03:44.609Z,99.90
2018-10-17T07:06:11.851Z,99.90
2018-10-17T07:08:39.106Z,99.90
2018-10-17T07:11:06.545Z,99.90
2018-10-17T07:13:33.744Z,99.90
2018-10-17T07:16:01.041Z,99.90
2018-10-17T07:18:28.217Z,99.90
2018-10-17T07:20:55.692Z,99.90
2018-10-17T07:23:22.864Z,99.90
2018-10-17T07:25:50.096Z,99.90
2018-10-17T07:28:17.368Z,99.90
2018-10-17T07:30:44.572Z,99.90
2018-10-17T07:33:11.790Z,99.90
2018-10-17T07:35:39.035Z,99.90
2018-10-17T07:38:06.255Z,99.90
2018-10-17T07:40:33.494Z,99.90
2018-10-17T07:43:01.492Z,99.90
2018-10-17T07:45:28.878Z,99.90
2018-10-17T07:47:56.092Z,99.90
2018-10-17T07:50:23.261Z,99.90
2018-10-17T07:52:50.541Z,99.90
2018-10-17T07:55:17.807Z,99.90
2018-10-17T07:57:45.137Z,99.90
2018-10-17T08:00:13.526Z,99.90
2018-10-17T08:02:40.711Z,99.90
2018-10-17T08:05:08.393Z,99.90
2018-10-17T08:07:35.576Z,99.90
2018-10-17T08:10:03.011Z,99.90
2018-10-17T08:12:30.287Z,99.90
2018-10-17T08:14:57.464Z,99.90
2018-10-17T08:17:24.795Z,99.90
2018-10-17T08:19:51.991Z,99.90
2018-10-17T08:22:20.303Z,99.90
2018-10-17T08:24:47.836Z,99.90
2018-10-17T08:27:15.089Z,99.90
2018-10-17T08:29:49.159Z,99.90
2018-10-17T08:32:16.303Z,99.90
2018-10-17T08:34:43.695Z,99.90
2018-10-17T08:37:11.575Z,99.90
2018-10-17T08:39:38.633Z,99.90
2018-10-17T08:42:06.116Z,99.90
2018-10-17T08:44:33.288Z,99.90
2018-10-17T08:47:00.599Z,99.90
2018-10-17T08:49:27.800Z,99.90
2018-10-17T08:51:55.090Z,99.90
2018-10-17T08:54:24.465Z,99.90
2018-10-17T08:56:52.002Z,99.90
2018-10-17T08:59:19.304Z,99.90
2018-10-17T09:01:46.771Z,99.90
2018-10-17T09:04:14.131Z,99.90
2018-10-17T09:06:41.480Z,99.90
2018-10-17T09:09:09.853Z,99.90
2018-10-17T09:11:37.496Z,99.90
2018-10-17T09:14:05.895Z,99.90
2018-10-17T09:16:40.215Z,99.90
2018-10-17T09:19:08.330Z,99.90
2018-10-17T09:21:35.871Z,99.90
2018-10-17T09:24:06.708Z,99.90
2018-10-17T09:26:33.909Z,99.90
2018-10-17T09:29:02.220Z,99.90
2018-10-17T09:31:29.485Z,99.90
2018-10-17T09:33:56.947Z,99.90
2018-10-17T09:36:24.197Z,99.90
2018-10-17T09:38:51.504Z,99.90
2018-10-17T09:41:18.986Z,99.90
2018-10-17T09:43:46.220Z,99.90
2018-10-17T09:46:13.572Z,99.90
2018-10-17T09:48:41.250Z,99.90
2018-10-17T09:51:08.869Z,99.90
2018-10-17T09:53:36.104Z,99.90
2018-10-17T09:56:03.399Z,99.90
2018-10-17T09:58:30.920Z,99.90
2018-10-17T10:01:10.980Z,99.90
2018-10-17T10:03:38.224Z,99.90
2018-10-17T10:06:06.194Z,99.90
2018-10-17T10:08:34.526Z,99.90
2018-10-17T10:11:03.982Z,99.90
2018-10-17T10:13:31.267Z,99.90
2018-10-17T10:15:58.517Z,99.90
2018-10-17T10:18:25.841Z,99.90
2018-10-17T10:20:53.086Z,99.90
2018-10-17T10:23:20.495Z,99.90
2018-10-17T10:25:47.657Z,99.90
2018-10-17T10:28:15.107Z,99.90
2018-10-17T10:30:42.990Z,99.90
2018-10-17T10:33:10.333Z,99.90
2018-10-17T10:35:37.689Z,99.90
2018-10-17T10:38:05.376Z,99.90
2018-10-17T10:40:33.068Z,99.90
2018-10-17T10:43:00.761Z,99.90
2018-10-17T10:45:28.015Z,99.90
2018-10-17T10:47:55.719Z,99.90
2018-10-17T10:50:22.911Z,99.90
2018-10-17T10:52:51.323Z,99.90
2018-10-17T10:55:18.411Z,99.90
2018-10-17T10:57:45.671Z,99.90
2018-10-17T11:00:13.105Z,99.90
2018-10-17T11:02:40.165Z,99.90
2018-10-17T11:07:41.685Z,99.90
2018-10-17T11:10:08.866Z,99.90
2018-10-17T11:12:36.982Z,99.90
2018-10-17T11:15:05.491Z,99.90
2018-10-17T11:17:33.808Z,99.90
2018-10-17T11:20:01.065Z,99.90
2018-10-17T11:22:28.348Z,99.90
2018-10-17T11:24:55.576Z,99.90
2018-10-17T11:27:22.782Z,99.90
2018-10-17T11:29:49.976Z,99.90
2018-10-17T11:32:17.157Z,99.90
2018-10-17T11:34:45.066Z,99.90
2018-10-17T11:37:12.393Z,99.90
2018-10-17T11:39:39.578Z,99.90
2018-10-17T11:42:06.789Z,99.90
2018-10-17T11:44:35.120Z,99.90
2018-10-17T11:47:02.509Z,99.90
2018-10-17T11:49:29.708Z,99.90
2018-10-17T11:51:56.904Z,99.90
2018-10-17T11:54:24.163Z,99.90
2018-10-17T11:56:51.370Z,99.90
2018-10-17T11:59:18.558Z,99.90
2018-10-17T12:01:45.715Z,99.90
2018-10-17T12:04:13.063Z,99.90
2018-10-17T12:06:40.481Z,99.90
2018-10-17T12:09:09.244Z,99.90
2018-10-17T12:11:38.717Z,99.10
2018-10-17T12:14:05.976Z,99.40
2018-10-17T12:16:34.293Z,99.00
2018-10-17T12:19:01.771Z,98.30
2018-10-17T12:21:29.458Z,97.90
2018-10-17T12:23:56.874Z,97.30
2018-10-17T12:26:24.145Z,97.40
2018-10-17T12:28:52.598Z,97.90
2018-10-17T12:31:19.775Z,97.20
2018-10-17T12:33:46.921Z,97.30
2018-10-17T12:36:14.061Z,96.80
2018-10-17T12:38:41.236Z,96.90
2018-10-17T12:41:08.675Z,96.70
2018-10-17T12:43:37.296Z,96.80
2018-10-17T12:46:07.034Z,95.70
2018-10-17T12:48:34.834Z,95.50
2018-10-17T12:51:03.217Z,95.40
2018-10-17T12:53:32.399Z,94.90
2018-10-17T12:56:00.101Z,94.50
2018-10-17T12:58:27.289Z,94.90
2018-10-17T13:00:54.539Z,95.50
2018-10-17T13:03:22.390Z,94.60
2018-10-17T13:05:49.768Z,94.30
2018-10-17T13:08:16.974Z,94.50
2018-10-17T13:10:44.318Z,94.40
2018-10-17T13:13:11.627Z,94.60
2018-10-17T13:15:38.850Z,94.70
2018-10-17T13:18:06.289Z,94.90
2018-10-17T13:20:33.511Z,94.60
2018-10-17T13:23:07.493Z,94.80
2018-10-17T13:25:34.700Z,94.20
2018-10-17T13:28:01.901Z,94.10
2018-10-17T13:30:29.074Z,94.10
2018-10-17T13:32:56.401Z,93.60
2018-10-17T13:35:23.769Z,92.60
2018-10-17T13:37:51.045Z,92.70
2018-10-17T13:40:18.260Z,93.20
2018-10-17T13:42:45.573Z,93.30
2018-10-17T13:45:14.589Z,92.70
2018-10-17T13:47:41.781Z,92.70
2018-10-17T13:50:08.987Z,93.10
2018-10-17T13:52:36.185Z,92.70
2018-10-17T13:55:03.576Z,92.50
2018-10-17T13:57:31.861Z,93.30
2018-10-17T13:59:59.056Z,93.60
2018-10-17T14:02:26.788Z,93.20
2018-10-17T14:04:54.515Z,92.20
2018-10-17T14:07:21.783Z,92.20
2018-10-17T14:09:49.101Z,92.50
2018-10-17T14:12:16.521Z,92.20
2018-10-17T14:14:43.666Z,91.10
2018-10-17T14:17:10.849Z,91.50
2018-10-17T14:19:38.211Z,91.30
2018-10-17T14:22:05.803Z,91.30
2018-10-17T14:24:33.006Z,90.40
2018-10-17T14:27:00.366Z,90.40
2018-10-17T14:29:27.925Z,91.00
2018-10-17T14:31:55.419Z,91.50
2018-10-17T14:34:22.608Z,90.40
2018-10-17T14:36:49.936Z,90.30
2018-10-17T14:39:17.277Z,88.50
2018-10-17T14:41:44.544Z,88.00
2018-10-17T14:44:11.777Z,87.80
2018-10-17T14:46:39.792Z,86.30
2018-10-17T14:49:06.984Z,87.00
2018-10-17T14:51:34.140Z,87.10
2018-10-17T14:54:01.510Z,86.70
2018-10-17T14:56:28.853Z,85.90
2018-10-17T14:58:56.197Z,87.40
2018-10-17T15:01:23.627Z,87.80
2018-10-17T15:03:51.222Z,89.00
2018-10-17T15:06:18.407Z,89.60
2018-10-17T15:08:45.777Z,90.00
2018-10-17T15:11:13.261Z,90.20
2018-10-17T15:13:40.763Z,90.70
2018-10-17T15:16:07.980Z,90.60
2018-10-17T15:18:35.160Z,90.60
2018-10-17T15:21:02.342Z,90.70
2018-10-17T15:24:32.612Z,91.10
2018-10-17T15:26:59.790Z,91.60
2018-10-17T15:29:27.230Z,92.00
2018-10-17T15:31:54.590Z,92.20
2018-10-17T15:34:21.811Z,92.70
2018-10-17T15:36:49.137Z,93.10
2018-10-17T15:39:16.519Z,93.60
2018-10-17T15:41:46.656Z,93.80
2018-10-17T15:44:17.437Z,93.90
2018-10-17T15:46:44.626Z,94.30
2018-10-17T15:49:11.869Z,94.60
2018-10-17T15:51:39.150Z,95.10
2018-10-17T15:54:06.401Z,95.10
2018-10-17T15:56:33.686Z,95.50
2018-10-17T15:59:00.900Z,95.80
2018-10-17T16:01:28.111Z,96.00
2018-10-17T16:03:55.370Z,96.40
2018-10-17T16:06:22.719Z,97.00
2018-10-17T16:08:49.951Z,97.40
2018-10-17T16:11:17.309Z,97.60
2018-10-17T16:13:44.664Z,98.10
2018-10-17T16:16:13.936Z,98.30
2018-10-17T16:18:41.776Z,99.10
2018-10-17T16:21:09.076Z,99.20
2018-10-17T16:23:36.380Z,99.60
2018-10-17T16:26:03.984Z,99.80
2018-10-17T16:28:31.129Z,99.90
2018-10-17T16:30:58.538Z,99.90
2018-10-17T16:33:25.748Z,99.90
2018-10-17T16:35:53.068Z,99.90
2018-10-17T16:38:20.339Z,99.90
2018-10-17T16:40:47.616Z,99.90
2018-10-17T16:43:14.908Z,99.90
2018-10-17T16:45:42.207Z,99.90
2018-10-17T16:48:09.590Z,99.90
2018-10-17T16:50:37.410Z,99.90
2018-10-17T16:53:04.533Z,99.90
2018-10-17T16:55:31.811Z,99.90
2018-10-17T16:57:59.094Z,99.90
2018-10-17T17:00:26.371Z,99.90
2018-10-17T17:02:53.605Z,99.90
2018-10-17T17:05:21.062Z,99.90
2018-10-17T17:07:48.280Z,99.90
2018-10-17T17:10:15.560Z,99.90
2018-10-17T17:12:43.101Z,99.90
2018-10-17T17:15:10.804Z,99.90
2018-10-17T17:17:38.015Z,99.90
2018-10-17T17:20:07.700Z,99.90
2018-10-17T17:22:34.879Z,99.90
2018-10-17T17:25:02.160Z,99.90
2018-10-17T17:27:29.631Z,99.90
2018-10-17T17:30:01.310Z,99.90
2018-10-17T17:32:28.545Z,99.90
2018-10-17T17:34:55.897Z,99.90
2018-10-17T17:37:23.010Z,99.90
2018-10-17T17:39:51.217Z,99.90
2018-10-17T17:42:18.435Z,99.90
2018-10-17T17:44:45.745Z,99.90
2018-10-17T17:47:12.977Z,99.90
2018-10-17T17:49:40.330Z,99.90
2018-10-17T17:52:07.690Z,99.90
2018-10-17T17:54:34.917Z,99.90
2018-10-17T17:57:02.164Z,99.90
2018-10-17T17:59:30.433Z,99.90
2018-10-17T18:01:57.634Z,99.90
2018-10-17T18:04:24.929Z,99.90
2018-10-17T18:06:52.118Z,99.90
2018-10-17T18:09:19.293Z,99.90
2018-10-17T18:11:46.931Z,99.90
2018-10-17T18:14:14.216Z,99.90
2018-10-17T18:16:41.357Z,99.90
2018-10-17T18:19:08.928Z,99.90
2018-10-17T18:21:39.159Z,99.90
2018-10-17T18:24:06.515Z,99.90
2018-10-17T18:26:33.863Z,99.90
2018-10-17T18:29:01.309Z,99.90
2018-10-17T18:31:28.542Z,99.90
2018-10-17T18:33:55.918Z,99.90
2018-10-17T18:36:23.266Z,99.90
2018-10-17T18:38:50.566Z,99.90
2018-10-17T18:41:17.828Z,99.90
2018-10-17T18:43:45.385Z,99.90
2018-10-17T18:46:12.644Z,99.90
2018-10-17T18:48:42.774Z,99.90
2018-10-17T18:51:10.350Z,99.90
2018-10-17T18:53:37.494Z,99.90
2018-10-17T18:56:04.893Z,99.90
2018-10-17T18:58:32.122Z,99.90
2018-10-17T19:00:59.824Z,99.90
2018-10-17T19:03:27.255Z,99.90
2018-10-17T19:05:54.519Z,99.90
2018-10-17T19:08:21.829Z,99.90
2018-10-17T19:10:49.702Z,99.90
2018-10-17T19:13:17.329Z,99.90
2018-10-17T19:15:47.154Z,99.90
2018-10-17T19:18:15.560Z,99.90
2018-10-17T19:20:43.121Z,99.90
2018-10-17T19:23:10.487Z,99.90
2018-10-17T19:25:37.787Z,99.90
2018-10-17T19:28:05.010Z,99.90
2018-10-17T19:30:32.341Z,99.90
2018-10-17T19:33:00.045Z,99.90
2018-10-17T19:35:27.356Z,99.90
2018-10-17T19:37:54.703Z,99.90
2018-10-17T19:40:21.937Z,99.90
2018-10-17T19:42:49.606Z,99.90
2018-10-17T19:45:18.010Z,99.90
2018-10-17T19:47:45.774Z,99.90
2018-10-17T19:50:13.471Z,99.90
2018-10-17T19:52:40.859Z,99.90
2018-10-17T19:55:09.264Z,99.90
2018-10-17T19:57:37.024Z,99.90
2018-10-17T20:00:05.814Z,99.90
2018-10-17T20:02:33.323Z,99.90
2018-10-17T20:05:00.928Z,99.90
2018-10-17T20:07:28.876Z,99.90
2018-10-17T20:09:56.142Z,99.90
2018-10-17T20:12:24.130Z,99.90
2018-10-17T20:14:51.409Z,99.90
2018-10-17T20:17:18.617Z,99.90
2018-10-17T20:19:46.077Z,99.90
2018-10-17T20:22:13.353Z,99.90
2018-10-17T20:24:40.990Z,99.90
2018-10-17T20:27:09.631Z,99.90
2018-10-17T20:29:37.565Z,99.90
2018-10-17T20:32:05.280Z,99.90
2018-10-17T20:34:32.601Z,99.90
2018-10-17T20:37:00.175Z,99.90
2018-10-17T20:39:27.529Z,99.90
2018-10-17T20:41:55.783Z,99.90
2018-10-17T20:44:23.044Z,99.90
2018-10-17T20:46:50.468Z,99.90
2018-10-17T20:49:17.864Z,99.90
2018-10-17T20:51:45.686Z,99.90
2018-10-17T20:54:13.352Z,99.90
2018-10-17T20:56:40.592Z,99.90
2018-10-17T20:59:07.874Z,99.90
2018-10-17T21:01:35.085Z,99.90
2018-10-17T21:04:03.495Z,99.90
2018-10-17T21:06:30.698Z,99.90
2018-10-17T21:08:57.885Z,99.90
2018-10-17T21:11:25.041Z,99.90
2018-10-17T21:13:52.642Z,99.90
2018-10-17T21:16:19.816Z,99.90
2018-10-17T21:18:47.039Z,99.90
2018-10-17T21:21:14.326Z,99.90
2018-10-17T21:23:41.531Z,99.90
2018-10-17T21:26:08.752Z,99.90
2018-10-17T21:28:36.017Z,99.90
2018-10-17T21:31:03.274Z,99.90
2018-10-17T21:33:30.432Z,99.90
2018-10-17T21:35:57.621Z,99.90
2018-10-17T21:38:24.851Z,99.90
2018-10-17T21:40:52.167Z,99.90
2018-10-17T21:43:19.414Z,99.90
2018-10-17T21:45:46.631Z,99.90
2018-10-17T21:48:13.857Z,99.90
2018-10-17T21:50:41.050Z,99.90
2018-10-17T21:53:08.286Z,99.90
2018-10-17T21:55:35.538Z,99.90
2018-10-17T21:58:03.624Z,99.90
2018-10-17T22:00:31.582Z,99.90
2018-10-17T22:02:59.368Z,99.90
2018-10-17T22:05:27.099Z,99.90
2018-10-17T22:10:33.874Z,99.90
2018-10-17T22:13:01.266Z,99.90
2018-10-17T22:15:30.681Z,99.90
2018-10-17T22:17:57.825Z,99.90
2018-10-17T22:20:24.994Z,99.90
2018-10-17T22:22:52.297Z,99.90
2018-10-17T22:25:19.428Z,99.90
2018-10-17T22:27:46.628Z,99.90
2018-10-17T22:30:13.861Z,99.90
2018-10-17T22:32:41.155Z,99.90
2018-10-17T22:35:08.281Z,99.90
2018-10-17T22:37:35.466Z,99.90
2018-10-17T22:40:02.906Z,99.90
2018-10-17T22:42:30.079Z,99.90
2018-10-17T22:44:57.253Z,99.90
2018-10-17T22:47:24.464Z,99.90
2018-10-17T22:49:51.829Z,99.90
2018-10-17T22:52:19.048Z,99.90
2018-10-17T22:54:46.185Z,99.90
2018-10-17T22:57:13.556Z,99.90
2018-10-17T22:59:40.779Z,99.90
2018-10-17T23:02:08.374Z,99.90
2018-10-17T23:04:35.550Z,99.90
2018-10-17T23:07:03.806Z,99.90
2018-10-17T23:09:30.957Z,99.90
2018-10-17T23:11:58.212Z,99.90
2018-10-17T23:14:25.390Z,99.90
2018-10-17T23:16:52.652Z,99.90
2018-10-17T23:19:19.802Z,99.90
2018-10-17T23:21:46.981Z,99.90
2018-10-17T23:24:14.123Z,99.90
2018-10-17T23:26:41.548Z,99.90
2018-10-17T23:29:08.757Z,99.90
2018-10-17T23:31:36.028Z,99.90
2018-10-17T23:34:03.401Z,99.90
2018-10-17T23:36:30.537Z,99.90
2018-10-17T23:38:57.737Z,99.90
2018-10-17T23:41:24.940Z,99.90
2018-10-17T23:43:52.094Z,99.90
2018-10-17T23:46:19.296Z,99.90
2018-10-17T23:48:46.567Z,99.90
2018-10-17T23:51:13.692Z,99.90
2018-10-17T23:53:40.837Z,99.90
2018-10-17T23:56:08.246Z,99.90
2018-10-17T23:58:35.356Z,99.90
